sensor_id;sensor_type;location;lat;lon;timestamp;pressure;altitude;pressure_sealevel;temperature;humidity
58698;BME280;44475;53.206;-6.106;2023-12-28T00:00:22;98704.22;;;20.43;56.52
58698;BME280;44475;53.206;-6.106;2023-12-28T00:02:48;98696.06;;;20.43;56.45
58698;BME280;44475;53.206;-6.106;2023-12-28T00:05:15;98711.38;;;20.44;56.48
58698;BME280;44475;53.206;-6.106;2023-12-28T00:07:41;98702.53;;;20.42;56.42
58698;BME280;44475;53.206;-6.106;2023-12-28T00:10:08;98708.81;;;20.43;56.30
58698;BME280;44475;53.206;-6.106;2023-12-28T00:12:34;98726.00;;;20.43;56.51
58698;BME280;44475;53.206;-6.106;2023-12-28T00:15:01;98753.56;;;20.40;56.72
58698;BME280;44475;53.206;-6.106;2023-12-28T00:17:36;98710.19;;;20.38;56.49
58698;BME280;44475;53.206;-6.106;2023-12-28T00:31:36;98811.00;;;20.37;57.00
58698;BME280;44475;53.206;-6.106;2023-12-28T00:34:02;98819.00;;;20.38;56.65
58698;BME280;44475;53.206;-6.106;2023-12-28T00:36:31;98827.81;;;20.40;56.85
58698;BME280;44475;53.206;-6.106;2023-12-28T00:38:59;98849.78;;;20.39;56.74
58698;BME280;44475;53.206;-6.106;2023-12-28T00:41:28;98845.34;;;20.38;56.56
58698;BME280;44475;53.206;-6.106;2023-12-28T00:43:57;98883.94;;;20.41;56.57
58698;BME280;44475;53.206;-6.106;2023-12-28T00:46:27;98870.53;;;20.40;56.38
58698;BME280;44475;53.206;-6.106;2023-12-28T00:49:02;98897.88;;;20.38;56.46
58698;BME280;44475;53.206;-6.106;2023-12-28T00:51:28;98902.97;;;20.41;56.38
58698;BME280;44475;53.206;-6.106;2023-12-28T00:53:54;98932.03;;;20.41;56.33
58698;BME280;44475;53.206;-6.106;2023-12-28T00:56:21;98937.31;;;20.43;56.27
58698;BME280;44475;53.206;-6.106;2023-12-28T00:58:47;98937.00;;;20.46;56.09
58698;BME280;44475;53.206;-6.106;2023-12-28T01:01:13;98964.38;;;20.44;56.04
58698;BME280;44475;53.206;-6.106;2023-12-28T01:03:48;98976.09;;;20.45;56.05
58698;BME280;44475;53.206;-6.106;2023-12-28T01:06:17;98958.94;;;20.44;56.09
58698;BME280;44475;53.206;-6.106;2023-12-28T01:08:43;98992.59;;;20.43;56.17
58698;BME280;44475;53.206;-6.106;2023-12-28T01:11:11;98986.97;;;20.45;56.08
58698;BME280;44475;53.206;-6.106;2023-12-28T01:13:40;99005.34;;;20.43;56.09
58698;BME280;44475;53.206;-6.106;2023-12-28T01:16:06;99028.97;;;20.42;56.23
58698;BME280;44475;53.206;-6.106;2023-12-28T01:21:50;99021.94;;;20.31;56.86
58698;BME280;44475;53.206;-6.106;2023-12-28T01:24:17;99034.41;;;20.42;56.50
58698;BME280;44475;53.206;-6.106;2023-12-28T01:26:43;99048.84;;;20.43;56.86
58698;BME280;44475;53.206;-6.106;2023-12-28T01:29:10;99071.47;;;20.43;56.85
58698;BME280;44475;53.206;-6.106;2023-12-28T01:31:37;99063.47;;;20.41;56.73
58698;BME280;44475;53.206;-6.106;2023-12-28T01:34:05;99062.31;;;20.44;56.45
58698;BME280;44475;53.206;-6.106;2023-12-28T01:36:33;99063.00;;;20.46;56.61
58698;BME280;44475;53.206;-6.106;2023-12-28T02:02:39;99103.22;;;20.34;56.53
58698;BME280;44475;53.206;-6.106;2023-12-28T02:05:51;99094.34;;;20.32;56.67
58698;BME280;44475;53.206;-6.106;2023-12-28T02:08:21;99094.03;;;20.35;56.65
58698;BME280;44475;53.206;-6.106;2023-12-28T02:10:49;99085.41;;;20.40;56.51
58698;BME280;44475;53.206;-6.106;2023-12-28T02:13:16;99104.47;;;20.40;56.45
58698;BME280;44475;53.206;-6.106;2023-12-28T02:15:48;99085.56;;;20.38;56.62
58698;BME280;44475;53.206;-6.106;2023-12-28T02:18:21;99083.72;;;20.39;56.49
58698;BME280;44475;53.206;-6.106;2023-12-28T02:20:50;99099.03;;;20.40;56.66
58698;BME280;44475;53.206;-6.106;2023-12-28T02:23:17;99106.13;;;20.41;56.32
58698;BME280;44475;53.206;-6.106;2023-12-28T02:25:43;99108.88;;;20.41;56.66
58698;BME280;44475;53.206;-6.106;2023-12-28T02:28:10;99089.81;;;20.41;56.41
58698;BME280;44475;53.206;-6.106;2023-12-28T02:30:36;99103.25;;;20.43;56.37
58698;BME280;44475;53.206;-6.106;2023-12-28T02:36:27;99095.09;;;20.43;55.86
58698;BME280;44475;53.206;-6.106;2023-12-28T02:39:14;99105.13;;;20.42;56.20
58698;BME280;44475;53.206;-6.106;2023-12-28T03:08:26;99142.31;;;20.33;56.49
58698;BME280;44475;53.206;-6.106;2023-12-28T03:10:56;99151.00;;;20.37;56.50
58698;BME280;44475;53.206;-6.106;2023-12-28T03:13:28;99144.16;;;20.33;56.61
58698;BME280;44475;53.206;-6.106;2023-12-28T03:15:58;99121.56;;;20.32;56.63
58698;BME280;44475;53.206;-6.106;2023-12-28T03:18:24;99151.72;;;20.39;56.36
58698;BME280;44475;53.206;-6.106;2023-12-28T03:20:50;99150.72;;;20.40;56.52
58698;BME280;44475;53.206;-6.106;2023-12-28T03:23:16;99162.59;;;20.39;56.76
58698;BME280;44475;53.206;-6.106;2023-12-28T03:25:43;99159.88;;;20.39;56.62
58698;BME280;44475;53.206;-6.106;2023-12-28T03:28:09;99179.59;;;20.41;56.43
58698;BME280;44475;53.206;-6.106;2023-12-28T03:30:35;99168.41;;;20.44;56.42
58698;BME280;44475;53.206;-6.106;2023-12-28T03:33:02;99162.09;;;20.44;56.13
58698;BME280;44475;53.206;-6.106;2023-12-28T03:35:28;99160.41;;;20.43;56.37
58698;BME280;44475;53.206;-6.106;2023-12-28T03:37:54;99159.53;;;20.42;56.18
58698;BME280;44475;53.206;-6.106;2023-12-28T03:40:21;99171.28;;;20.43;56.20
58698;BME280;44475;53.206;-6.106;2023-12-28T03:42:48;99178.22;;;20.37;56.33
58698;BME280;44475;53.206;-6.106;2023-12-28T03:45:14;99195.25;;;20.39;56.41
58698;BME280;44475;53.206;-6.106;2023-12-28T03:47:40;99177.72;;;20.41;56.46
58698;BME280;44475;53.206;-6.106;2023-12-28T03:50:07;99170.97;;;20.46;56.10
58698;BME280;44475;53.206;-6.106;2023-12-28T03:52:34;99183.88;;;20.44;56.22
58698;BME280;44475;53.206;-6.106;2023-12-28T03:55:09;99186.06;;;20.40;56.07
58698;BME280;44475;53.206;-6.106;2023-12-28T03:57:36;99183.00;;;20.43;56.47
58698;BME280;44475;53.206;-6.106;2023-12-28T04:00:02;99194.75;;;20.44;56.25
58698;BME280;44475;53.206;-6.106;2023-12-28T04:02:38;99201.03;;;20.44;56.28
58698;BME280;44475;53.206;-6.106;2023-12-28T04:05:05;99211.94;;;20.44;56.24
58698;BME280;44475;53.206;-6.106;2023-12-28T04:07:33;99207.34;;;20.45;56.11
58698;BME280;44475;53.206;-6.106;2023-12-28T04:09:59;99213.09;;;20.41;56.14
58698;BME280;44475;53.206;-6.106;2023-12-28T04:12:25;99194.06;;;20.41;56.07
58698;BME280;44475;53.206;-6.106;2023-12-28T04:14:54;99207.66;;;20.41;56.33
58698;BME280;44475;53.206;-6.106;2023-12-28T04:17:20;99216.81;;;20.40;56.19
58698;BME280;44475;53.206;-6.106;2023-12-28T04:19:47;99185.22;;;20.39;56.22
58698;BME280;44475;53.206;-6.106;2023-12-28T04:22:13;99203.91;;;20.43;55.99
58698;BME280;44475;53.206;-6.106;2023-12-28T04:24:39;99189.47;;;20.42;56.11
58698;BME280;44475;53.206;-6.106;2023-12-28T04:27:06;99205.28;;;20.38;55.90
58698;BME280;44475;53.206;-6.106;2023-12-28T04:29:32;99189.63;;;20.40;56.06
58698;BME280;44475;53.206;-6.106;2023-12-28T04:31:58;99217.88;;;20.39;56.07
58698;BME280;44475;53.206;-6.106;2023-12-28T04:34:25;99221.25;;;20.41;55.90
58698;BME280;44475;53.206;-6.106;2023-12-28T04:36:51;99227.56;;;20.42;56.06
58698;BME280;44475;53.206;-6.106;2023-12-28T04:39:18;99226.88;;;20.40;55.72
58698;BME280;44475;53.206;-6.106;2023-12-28T04:41:45;99239.63;;;20.39;56.09
58698;BME280;44475;53.206;-6.106;2023-12-28T04:44:12;99242.66;;;20.36;55.77
58698;BME280;44475;53.206;-6.106;2023-12-28T04:46:39;99236.06;;;20.39;56.22
58698;BME280;44475;53.206;-6.106;2023-12-28T04:49:11;99238.44;;;20.42;56.08
58698;BME280;44475;53.206;-6.106;2023-12-28T04:51:43;99248.31;;;20.43;55.95
58698;BME280;44475;53.206;-6.106;2023-12-28T04:54:10;99257.31;;;20.44;56.21
58698;BME280;44475;53.206;-6.106;2023-12-28T04:56:36;99261.06;;;20.43;55.98
58698;BME280;44475;53.206;-6.106;2023-12-28T04:59:02;99270.94;;;20.44;55.89
58698;BME280;44475;53.206;-6.106;2023-12-28T05:01:29;99276.38;;;20.44;56.09
58698;BME280;44475;53.206;-6.106;2023-12-28T05:03:59;99272.94;;;20.41;56.04
58698;BME280;44475;53.206;-6.106;2023-12-28T05:06:28;99278.22;;;20.43;55.92
58698;BME280;44475;53.206;-6.106;2023-12-28T05:08:55;99277.06;;;20.46;55.75
58698;BME280;44475;53.206;-6.106;2023-12-28T05:11:21;99296.13;;;20.46;55.71
58698;BME280;44475;53.206;-6.106;2023-12-28T05:13:49;99286.09;;;20.46;55.83
58698;BME280;44475;53.206;-6.106;2023-12-28T05:16:15;99295.13;;;20.47;55.64
58698;BME280;44475;53.206;-6.106;2023-12-28T05:18:41;99300.00;;;20.43;55.78
58698;BME280;44475;53.206;-6.106;2023-12-28T05:21:08;99302.72;;;20.43;55.78
58698;BME280;44475;53.206;-6.106;2023-12-28T05:23:34;99302.19;;;20.39;55.91
58698;BME280;44475;53.206;-6.106;2023-12-28T05:26:01;99305.59;;;20.41;55.80
58698;BME280;44475;53.206;-6.106;2023-12-28T05:28:27;99318.19;;;20.43;55.78
58698;BME280;44475;53.206;-6.106;2023-12-28T05:30:53;99295.56;;;20.42;55.89
58698;BME280;44475;53.206;-6.106;2023-12-28T05:33:20;99306.44;;;20.42;55.51
58698;BME280;44475;53.206;-6.106;2023-12-28T05:35:46;99310.88;;;20.43;55.75
58698;BME280;44475;53.206;-6.106;2023-12-28T05:38:13;99303.56;;;20.44;55.86
58698;BME280;44475;53.206;-6.106;2023-12-28T05:40:39;99316.16;;;20.45;55.87
58698;BME280;44475;53.206;-6.106;2023-12-28T05:43:06;99304.44;;;20.44;55.28
58698;BME280;44475;53.206;-6.106;2023-12-28T05:45:32;99312.75;;;20.43;55.59
58698;BME280;44475;53.206;-6.106;2023-12-28T05:47:58;99299.13;;;20.43;55.70
58698;BME280;44475;53.206;-6.106;2023-12-28T05:50:25;99299.00;;;20.44;55.59
58698;BME280;44475;53.206;-6.106;2023-12-28T05:52:51;99306.16;;;20.45;55.34
58698;BME280;44475;53.206;-6.106;2023-12-28T05:55:17;99293.53;;;20.44;55.45
58698;BME280;44475;53.206;-6.106;2023-12-28T05:57:43;99313.44;;;20.45;55.30
58698;BME280;44475;53.206;-6.106;2023-12-28T06:00:10;99292.53;;;20.45;55.27
58698;BME280;44475;53.206;-6.106;2023-12-28T06:02:40;99306.84;;;20.47;55.50
58698;BME280;44475;53.206;-6.106;2023-12-28T06:05:07;99297.97;;;20.45;55.42
58698;BME280;44475;53.206;-6.106;2023-12-28T06:07:34;99292.38;;;20.47;55.28
58698;BME280;44475;53.206;-6.106;2023-12-28T06:10:00;99294.09;;;20.48;55.33
58698;BME280;44475;53.206;-6.106;2023-12-28T06:12:35;99301.56;;;20.46;55.37
58698;BME280;44475;53.206;-6.106;2023-12-28T06:15:32;99298.13;;;20.44;55.31
58698;BME280;44475;53.206;-6.106;2023-12-28T06:22:13;99303.88;;;20.40;55.47
58698;BME280;44475;53.206;-6.106;2023-12-28T06:24:40;99302.88;;;20.41;55.30
58698;BME280;44475;53.206;-6.106;2023-12-28T06:27:09;99304.44;;;20.44;55.31
58698;BME280;44475;53.206;-6.106;2023-12-28T06:29:59;99311.59;;;20.45;55.17
58698;BME280;44475;53.206;-6.106;2023-12-28T06:32:33;99308.88;;;20.45;55.21
58698;BME280;44475;53.206;-6.106;2023-12-28T06:35:05;99319.03;;;20.43;55.25
58698;BME280;44475;53.206;-6.106;2023-12-28T06:37:32;99319.91;;;20.44;55.19
58698;BME280;44475;53.206;-6.106;2023-12-28T06:39:59;99318.75;;;20.46;55.16
58698;BME280;44475;53.206;-6.106;2023-12-28T06:42:27;99313.44;;;20.45;55.21
58698;BME280;44475;53.206;-6.106;2023-12-28T06:44:56;99308.72;;;20.47;55.21
58698;BME280;44475;53.206;-6.106;2023-12-28T06:47:22;99306.16;;;20.45;55.17
58698;BME280;44475;53.206;-6.106;2023-12-28T06:57:23;99296.41;;;20.43;55.29
58698;BME280;44475;53.206;-6.106;2023-12-28T07:00:20;99288.09;;;20.44;55.39
58698;BME280;44475;53.206;-6.106;2023-12-28T07:02:47;99291.63;;;20.36;55.53
58698;BME280;44475;53.206;-6.106;2023-12-28T07:05:13;99281.28;;;20.40;55.40
58698;BME280;44475;53.206;-6.106;2023-12-28T07:07:40;99292.84;;;20.42;55.29
58698;BME280;44475;53.206;-6.106;2023-12-28T07:10:06;99309.03;;;20.44;55.44
58698;BME280;44475;53.206;-6.106;2023-12-28T07:12:33;99307.00;;;20.46;55.17
58698;BME280;44475;53.206;-6.106;2023-12-28T07:14:59;99297.13;;;20.45;55.25
58698;BME280;44475;53.206;-6.106;2023-12-28T07:17:26;99303.44;;;20.45;55.33
58698;BME280;44475;53.206;-6.106;2023-12-28T07:19:53;99299.13;;;20.43;55.24
58698;BME280;44475;53.206;-6.106;2023-12-28T07:22:20;99288.25;;;20.43;55.16
58698;BME280;44475;53.206;-6.106;2023-12-28T07:24:46;99280.94;;;20.43;55.30
58698;BME280;44475;53.206;-6.106;2023-12-28T07:27:12;99282.66;;;20.44;55.16
58698;BME280;44475;53.206;-6.106;2023-12-28T07:29:39;99288.81;;;20.46;55.22
58698;BME280;44475;53.206;-6.106;2023-12-28T07:43:02;99295.03;;;20.38;55.22
58698;BME280;44475;53.206;-6.106;2023-12-28T07:45:47;99281.81;;;20.44;55.30
58698;BME280;44475;53.206;-6.106;2023-12-28T07:48:13;99271.22;;;20.40;55.34
58698;BME280;44475;53.206;-6.106;2023-12-28T07:50:39;99269.22;;;20.43;55.12
58698;BME280;44475;53.206;-6.106;2023-12-28T07:53:06;99259.19;;;20.43;55.19
58698;BME280;44475;53.206;-6.106;2023-12-28T07:55:32;99252.75;;;20.44;55.23
58698;BME280;44475;53.206;-6.106;2023-12-28T07:57:58;99256.63;;;20.41;55.14
58698;BME280;44475;53.206;-6.106;2023-12-28T08:00:25;99251.03;;;20.43;55.16
58698;BME280;44475;53.206;-6.106;2023-12-28T08:02:51;99248.16;;;20.45;55.12
58698;BME280;44475;53.206;-6.106;2023-12-28T08:05:17;99248.47;;;20.41;55.11
58698;BME280;44475;53.206;-6.106;2023-12-28T08:11:43;99231.69;;;20.46;55.13
58698;BME280;44475;53.206;-6.106;2023-12-28T08:14:10;99235.97;;;20.49;54.94
58698;BME280;44475;53.206;-6.106;2023-12-28T08:16:39;99235.41;;;20.45;54.81
58698;BME280;44475;53.206;-6.106;2023-12-28T08:19:05;99218.78;;;20.48;55.03
58698;BME280;44475;53.206;-6.106;2023-12-28T08:21:31;99225.22;;;20.47;55.10
58698;BME280;44475;53.206;-6.106;2023-12-28T08:23:58;99219.94;;;20.46;54.80
58698;BME280;44475;53.206;-6.106;2023-12-28T08:30:16;99215.50;;;20.45;55.15
58698;BME280;44475;53.206;-6.106;2023-12-28T08:32:43;99217.22;;;20.46;54.97
58698;BME280;44475;53.206;-6.106;2023-12-28T08:35:09;99212.63;;;20.46;54.80
58698;BME280;44475;53.206;-6.106;2023-12-28T08:37:35;99221.09;;;20.43;55.18
58698;BME280;44475;53.206;-6.106;2023-12-28T08:40:02;99225.06;;;20.49;54.81
58698;BME280;44475;53.206;-6.106;2023-12-28T08:42:30;99223.38;;;20.48;54.87
58698;BME280;44475;53.206;-6.106;2023-12-28T08:44:56;99233.53;;;20.46;54.90
58698;BME280;44475;53.206;-6.106;2023-12-28T08:47:22;99223.81;;;20.43;55.03
58698;BME280;44475;53.206;-6.106;2023-12-28T08:53:36;99215.66;;;20.43;55.11
58698;BME280;44475;53.206;-6.106;2023-12-28T08:56:13;99224.84;;;20.42;55.24
58698;BME280;44475;53.206;-6.106;2023-12-28T08:58:40;99228.56;;;20.41;55.41
58698;BME280;44475;53.206;-6.106;2023-12-28T09:01:06;99219.25;;;20.44;55.12
58698;BME280;44475;53.206;-6.106;2023-12-28T09:03:32;99216.38;;;20.45;55.31
58698;BME280;44475;53.206;-6.106;2023-12-28T09:05:59;99200.03;;;20.45;55.17
58698;BME280;44475;53.206;-6.106;2023-12-28T09:08:25;99217.00;;;20.39;55.55
58698;BME280;44475;53.206;-6.106;2023-12-28T09:10:51;99217.94;;;20.48;54.94
58698;BME280;44475;53.206;-6.106;2023-12-28T09:13:18;99226.25;;;20.46;54.88
58698;BME280;44475;53.206;-6.106;2023-12-28T09:15:47;99218.22;;;20.45;55.03
58698;BME280;44475;53.206;-6.106;2023-12-28T09:18:13;99227.94;;;20.47;54.76
58698;BME280;44475;53.206;-6.106;2023-12-28T09:20:39;99215.34;;;20.46;54.75
58698;BME280;44475;53.206;-6.106;2023-12-28T09:23:06;99220.78;;;20.46;54.58
58698;BME280;44475;53.206;-6.106;2023-12-28T09:25:33;99221.81;;;20.45;54.56
58698;BME280;44475;53.206;-6.106;2023-12-28T09:27:59;99218.94;;;20.47;54.53
58698;BME280;44475;53.206;-6.106;2023-12-28T09:30:26;99208.59;;;20.50;54.37
58698;BME280;44475;53.206;-6.106;2023-12-28T09:32:52;99202.13;;;20.51;54.46
58698;BME280;44475;53.206;-6.106;2023-12-28T09:35:21;99200.44;;;20.50;54.44
58698;BME280;44475;53.206;-6.106;2023-12-28T09:37:47;99203.16;;;20.50;54.41
58698;BME280;44475;53.206;-6.106;2023-12-28T09:40:15;99213.66;;;20.45;54.21
58698;BME280;44475;53.206;-6.106;2023-12-28T09:42:53;99233.09;;;20.50;54.25
58698;BME280;44475;53.206;-6.106;2023-12-28T09:45:23;99254.00;;;20.50;54.42
58698;BME280;44475;53.206;-6.106;2023-12-28T09:47:50;99281.22;;;20.50;54.38
58698;BME280;44475;53.206;-6.106;2023-12-28T09:50:18;99277.78;;;20.48;54.22
58698;BME280;44475;53.206;-6.106;2023-12-28T09:52:45;99277.78;;;20.48;54.28
58698;BME280;44475;53.206;-6.106;2023-12-28T09:55:11;99274.06;;;20.49;54.32
58698;BME280;44475;53.206;-6.106;2023-12-28T09:57:38;99278.63;;;20.48;54.28
58698;BME280;44475;53.206;-6.106;2023-12-28T10:00:06;99280.50;;;20.48;54.20
58698;BME280;44475;53.206;-6.106;2023-12-28T10:02:40;99277.63;;;20.49;54.19
58698;BME280;44475;53.206;-6.106;2023-12-28T10:05:07;99303.81;;;20.50;54.45
58698;BME280;44475;53.206;-6.106;2023-12-28T10:07:44;99313.84;;;20.50;54.05
58698;BME280;44475;53.206;-6.106;2023-12-28T10:10:11;99301.25;;;20.49;54.26
58698;BME280;44475;53.206;-6.106;2023-12-28T10:12:38;99294.41;;;20.45;54.25
58698;BME280;44475;53.206;-6.106;2023-12-28T10:15:07;99309.72;;;20.46;54.84
58698;BME280;44475;53.206;-6.106;2023-12-28T10:17:34;99317.88;;;20.46;54.89
58698;BME280;44475;53.206;-6.106;2023-12-28T10:20:04;99307.84;;;20.46;54.89
58698;BME280;44475;53.206;-6.106;2023-12-28T10:22:33;99326.13;;;20.36;55.09
58698;BME280;44475;53.206;-6.106;2023-12-28T10:25:01;99296.66;;;20.49;54.57
58698;BME280;44475;53.206;-6.106;2023-12-28T10:27:28;99284.44;;;20.54;54.50
58698;BME280;44475;53.206;-6.106;2023-12-28T10:29:57;99293.47;;;20.54;54.02
58698;BME280;44475;53.206;-6.106;2023-12-28T10:32:24;99280.41;;;20.58;54.25
58698;BME280;44475;53.206;-6.106;2023-12-28T10:34:54;99281.44;;;20.57;54.04
58698;BME280;44475;53.206;-6.106;2023-12-28T10:37:21;99290.59;;;20.56;54.15
58698;BME280;44475;53.206;-6.106;2023-12-28T10:39:48;99312.13;;;20.49;54.27
58698;BME280;44475;53.206;-6.106;2023-12-28T10:42:32;99310.59;;;20.46;54.43
58698;BME280;44475;53.206;-6.106;2023-12-28T10:45:06;99308.56;;;20.48;54.28
58698;BME280;44475;53.206;-6.106;2023-12-28T10:47:33;99315.16;;;20.46;54.76
58698;BME280;44475;53.206;-6.106;2023-12-28T10:50:04;99301.72;;;20.44;54.89
58698;BME280;44475;53.206;-6.106;2023-12-28T10:52:36;99313.94;;;20.40;55.22
58698;BME280;44475;53.206;-6.106;2023-12-28T10:55:40;99301.72;;;20.44;55.27
58698;BME280;44475;53.206;-6.106;2023-12-28T10:58:36;99311.59;;;20.45;55.05
58698;BME280;44475;53.206;-6.106;2023-12-28T11:01:08;99298.44;;;20.40;55.21
58698;BME280;44475;53.206;-6.106;2023-12-28T11:03:38;99282.91;;;20.33;55.77
58698;BME280;44475;53.206;-6.106;2023-12-28T11:06:07;99300.16;;;20.41;55.44
58698;BME280;44475;53.206;-6.106;2023-12-28T11:08:34;99318.34;;;20.41;55.70
58698;BME280;44475;53.206;-6.106;2023-12-28T11:11:02;99300.69;;;20.45;55.40
58698;BME280;44475;53.206;-6.106;2023-12-28T11:13:34;99303.97;;;20.49;55.28
58698;BME280;44475;53.206;-6.106;2023-12-28T11:16:01;99305.84;;;20.48;55.22
58698;BME280;44475;53.206;-6.106;2023-12-28T11:18:28;99304.72;;;20.41;55.10
58698;BME280;44475;53.206;-6.106;2023-12-28T11:20:55;99306.28;;;20.44;55.35
58698;BME280;44475;53.206;-6.106;2023-12-28T11:23:22;99296.75;;;20.39;55.25
58698;BME280;44475;53.206;-6.106;2023-12-28T11:25:50;99294.41;;;20.45;55.37
58698;BME280;44475;53.206;-6.106;2023-12-28T11:28:17;99292.53;;;20.45;55.54
58698;BME280;44475;53.206;-6.106;2023-12-28T11:30:43;99303.28;;;20.47;55.56
58698;BME280;44475;53.206;-6.106;2023-12-28T11:33:11;99300.56;;;20.47;55.86
58698;BME280;44475;53.206;-6.106;2023-12-28T11:35:39;99306.00;;;20.47;55.73
58698;BME280;44475;53.206;-6.106;2023-12-28T11:38:08;99326.28;;;20.53;55.80
58698;BME280;44475;53.206;-6.106;2023-12-28T11:40:55;99312.50;;;20.54;55.71
58698;BME280;44475;53.206;-6.106;2023-12-28T11:43:23;99309.78;;;20.54;55.34
58698;BME280;44475;53.206;-6.106;2023-12-28T11:45:55;99322.41;;;20.55;55.62
58698;BME280;44475;53.206;-6.106;2023-12-28T11:48:26;99333.44;;;20.54;55.45
58698;BME280;44475;53.206;-6.106;2023-12-28T11:50:58;99328.47;;;20.49;55.38
58698;BME280;44475;53.206;-6.106;2023-12-28T11:53:25;99332.19;;;20.48;55.36
58698;BME280;44475;53.206;-6.106;2023-12-28T11:55:52;99339.50;;;20.47;55.47
58698;BME280;44475;53.206;-6.106;2023-12-28T11:58:18;99318.59;;;20.48;55.38
58698;BME280;44475;53.206;-6.106;2023-12-28T12:00:45;99333.91;;;20.49;55.93
58698;BME280;44475;53.206;-6.106;2023-12-28T12:03:12;99340.22;;;20.49;56.58
58698;BME280;44475;53.206;-6.106;2023-12-28T12:05:39;99332.91;;;20.50;57.19
58698;BME280;44475;53.206;-6.106;2023-12-28T12:08:06;99337.63;;;20.48;57.54
58698;BME280;44475;53.206;-6.106;2023-12-28T12:10:40;99340.22;;;20.49;57.88
58698;BME280;44475;53.206;-6.106;2023-12-28T12:13:08;99338.41;;;20.58;57.13
58698;BME280;44475;53.206;-6.106;2023-12-28T12:15:34;99343.22;;;20.65;56.67
58698;BME280;44475;53.206;-6.106;2023-12-28T12:18:02;99359.72;;;20.63;56.59
58698;BME280;44475;53.206;-6.106;2023-12-28T12:20:29;99350.53;;;20.64;56.44
58698;BME280;44475;53.206;-6.106;2023-12-28T12:23:00;99338.63;;;20.65;56.29
58698;BME280;44475;53.206;-6.106;2023-12-28T12:25:29;99353.25;;;20.64;56.33
58698;BME280;44475;53.206;-6.106;2023-12-28T12:27:55;99353.97;;;20.66;56.30
58698;BME280;44475;53.206;-6.106;2023-12-28T12:30:22;99356.53;;;20.68;55.71
58698;BME280;44475;53.206;-6.106;2023-12-28T12:32:49;99371.38;;;20.55;56.35
58698;BME280;44475;53.206;-6.106;2023-12-28T12:35:15;99376.75;;;20.65;56.14
58698;BME280;44475;53.206;-6.106;2023-12-28T12:37:43;99355.69;;;20.67;55.86
58698;BME280;44475;53.206;-6.106;2023-12-28T12:40:11;99371.69;;;20.70;55.60
58698;BME280;44475;53.206;-6.106;2023-12-28T12:42:38;99368.28;;;20.68;55.40
58698;BME280;44475;53.206;-6.106;2023-12-28T12:45:05;99386.47;;;20.68;55.60
58698;BME280;44475;53.206;-6.106;2023-12-28T12:47:35;99365.72;;;20.67;55.34
58698;BME280;44475;53.206;-6.106;2023-12-28T12:50:01;99380.31;;;20.66;55.26
58698;BME280;44475;53.206;-6.106;2023-12-28T12:52:28;99392.06;;;20.66;55.19
58698;BME280;44475;53.206;-6.106;2023-12-28T12:54:57;99392.91;;;20.67;54.95
58698;BME280;44475;53.206;-6.106;2023-12-28T12:57:27;99383.75;;;20.68;54.98
58698;BME280;44475;53.206;-6.106;2023-12-28T12:59:54;99390.34;;;20.65;54.87
58698;BME280;44475;53.206;-6.106;2023-12-28T13:02:23;99379.47;;;20.65;54.71
58698;BME280;44475;53.206;-6.106;2023-12-28T13:04:52;99373.88;;;20.67;54.76
58698;BME280;44475;53.206;-6.106;2023-12-28T13:07:19;99393.63;;;20.69;54.67
58698;BME280;44475;53.206;-6.106;2023-12-28T13:09:46;99393.78;;;20.67;54.87
58698;BME280;44475;53.206;-6.106;2023-12-28T13:12:12;99392.06;;;20.66;54.54
58698;BME280;44475;53.206;-6.106;2023-12-28T13:14:38;99388.63;;;20.64;54.74
58698;BME280;44475;53.206;-6.106;2023-12-28T13:17:05;99390.34;;;20.65;54.54
58698;BME280;44475;53.206;-6.106;2023-12-28T13:19:32;99394.06;;;20.64;54.72
58698;BME280;44475;53.206;-6.106;2023-12-28T13:22:00;99396.94;;;20.63;54.70
58698;BME280;44475;53.206;-6.106;2023-12-28T13:24:26;99397.50;;;20.66;54.63
58698;BME280;44475;53.206;-6.106;2023-12-28T13:26:52;99400.22;;;20.66;54.47
58698;BME280;44475;53.206;-6.106;2023-12-28T13:29:19;99393.78;;;20.67;54.46
58698;BME280;44475;53.206;-6.106;2023-12-28T13:31:45;99391.22;;;20.66;54.61
58698;BME280;44475;53.206;-6.106;2023-12-28T13:34:17;99413.84;;;20.66;54.73
58698;BME280;44475;53.206;-6.106;2023-12-28T13:36:45;99402.94;;;20.66;54.83
58698;BME280;44475;53.206;-6.106;2023-12-28T13:39:11;99398.50;;;20.65;54.51
58698;BME280;44475;53.206;-6.106;2023-12-28T13:41:41;99397.50;;;20.66;54.68
58698;BME280;44475;53.206;-6.106;2023-12-28T13:44:07;99409.25;;;20.67;54.75
58698;BME280;44475;53.206;-6.106;2023-12-28T13:46:36;99400.22;;;20.66;54.64
58698;BME280;44475;53.206;-6.106;2023-12-28T13:49:06;99397.50;;;20.66;54.69
58698;BME280;44475;53.206;-6.106;2023-12-28T13:51:33;99395.78;;;20.65;54.70
58698;BME280;44475;53.206;-6.106;2023-12-28T13:54:00;99387.78;;;20.64;54.72
58698;BME280;44475;53.206;-6.106;2023-12-28T13:56:26;99383.91;;;20.66;54.52
58698;BME280;44475;53.206;-6.106;2023-12-28T13:58:52;99373.16;;;20.65;54.59
58698;BME280;44475;53.206;-6.106;2023-12-28T14:01:19;99370.13;;;20.68;54.72
58698;BME280;44475;53.206;-6.106;2023-12-28T14:03:45;99366.41;;;20.69;54.57
58698;BME280;44475;53.206;-6.106;2023-12-28T14:06:14;99374.88;;;20.66;54.58
58698;BME280;44475;53.206;-6.106;2023-12-28T14:08:40;99376.75;;;20.65;54.57
58698;BME280;44475;53.206;-6.106;2023-12-28T14:11:06;99379.31;;;20.67;54.59
58698;BME280;44475;53.206;-6.106;2023-12-28T14:13:33;99365.72;;;20.67;54.30
58698;BME280;44475;53.206;-6.106;2023-12-28T14:16:01;99376.75;;;20.65;54.53
58698;BME280;44475;53.206;-6.106;2023-12-28T14:18:27;99372.47;;;20.63;54.53
58698;BME280;44475;53.206;-6.106;2023-12-28T14:20:53;99379.63;;;20.64;54.46
58698;BME280;44475;53.206;-6.106;2023-12-28T14:23:20;99374.16;;;20.64;54.50
58698;BME280;44475;53.206;-6.106;2023-12-28T14:25:46;99374.88;;;20.66;54.61
58698;BME280;44475;53.206;-6.106;2023-12-28T14:28:22;99375.19;;;20.63;54.46
58698;BME280;44475;53.206;-6.106;2023-12-28T14:30:53;99362.28;;;20.65;54.43
58698;BME280;44475;53.206;-6.106;2023-12-28T14:33:19;99374.03;;;20.65;54.29
58698;BME280;44475;53.206;-6.106;2023-12-28T14:35:46;99356.69;;;20.66;54.40
58698;BME280;44475;53.206;-6.106;2023-12-28T14:38:12;99368.56;;;20.65;54.36